Cassville, Missouri
Current Conditions -  °F | °C
As of 2:15 PM on Thursday 18 Dec 2014 (Local Time) from KHFJ Reporting Station
Overcast Overcast  
Wind Chill: 34°   Ceiling: 600
Heat Index: 37°   Visibility: 10mi
Dew Point: 36°   Wind: 5mph
Humidity: 93%   Direction: 240°WSW
Pressure: 30.13"   Gusts: NA
Location:  36.68°N, 93.87°W
Report Text: KHFJ 182015Z AUTO 24004KT 10SM OVC006 03/02 A3013 RMK AO2
Loading
Personal Weather Stations






























Interactive Weather Map New forecast layout! Learn more

10-Day Weather Forecast

Advertisements
Track Severe Weather on mobile